Time;durP1;ratioP1;P1;durP2;ratioP2;P2;SDS_P1;SDS_P2;PMS_P1;PMS_P2;Temp;Humidity;BMP_temperature;BMP_pressure;BME280_temperature;BME280_humidity;BME280_pressure;Samples;Min_cycle;Max_cycle;Signal;HPM_P1;HPM_P2
2022/05/11 00:01:52;;;;;;;104.97;39.88;;;20.60;1.00;;;;;;4986479;28;20252;-47
2022/05/11 00:04:18;;;;;;;90.35;35.13;;;;;;;;;;4986379;28;20273;-47
2022/05/11 00:06:44;;;;;;;88.43;36.53;;;20.70;1.00;;;;;;4986422;28;20724;-47
2022/05/11 00:09:12;;;;;;;89.75;35.88;;;20.50;1.00;;;;;;4985954;28;20205;-47
2022/05/11 00:11:39;;;;;;;67.40;31.35;;;20.40;1.00;;;;;;4986715;28;20807;-47
2022/05/11 00:14:05;;;;;;;89.55;34.65;;;;;;;;;;4987501;28;20185;-47
2022/05/11 00:16:31;;;;;;;95.50;36.78;;;21.30;1.00;;;;;;4984252;28;20296;-47
2022/05/11 00:18:57;;;;;;;87.38;34.45;;;;;;;;;;4986403;28;20305;-47
2022/05/11 00:21:23;;;;;;;95.07;36.58;;;20.40;1.00;;;;;;4986077;28;20295;-47
2022/05/11 00:23:51;;;;;;;83.97;34.13;;;20.30;1.00;;;;;;4986162;28;20248;-47
2022/05/11 00:26:17;;;;;;;103.40;37.53;;;;;;;;;;4985754;28;20273;-47
2022/05/11 00:28:43;;;;;;;46.92;22.60;;;20.40;1.00;;;;;;4986459;28;20217;-47
2022/05/11 00:31:09;;;;;;;73.28;29.50;;;;;;;;;;4986525;28;20355;-47
2022/05/11 00:33:35;;;;;;;78.55;30.13;;;20.20;1.00;;;;;;4986327;28;20221;-47
2022/05/11 00:36:01;;;;;;;88.18;34.30;;;20.30;99.90;;;;;;4986172;28;20236;-48
2022/05/11 00:38:28;;;;;;;98.13;36.00;;;20.20;1.00;;;;;;4986221;28;20891;-47
2022/05/11 00:40:57;;;;;;;49.65;24.65;;;20.20;1.00;;;;;;4984183;28;20343;-49
2022/05/11 00:43:38;;;;;;;88.00;33.95;;;20.20;1.00;;;;;;4987131;28;20228;-47
2022/05/11 00:46:27;;;;;;;94.88;34.53;;;20.00;1.00;;;;;;4985504;28;20255;-47
2022/05/11 00:51:49;;;;;;;99.68;36.03;;;19.90;65.20;;;;;;4987449;28;20527;-47
2022/05/11 00:54:17;;;;;;;85.38;33.17;;;19.90;99.90;;;;;;4985781;28;20244;-48
2022/05/11 00:56:48;;;;;;;95.53;36.42;;;19.80;99.90;;;;;;4986231;28;20263;-47
2022/05/11 00:59:19;;;;;;;71.13;28.83;;;19.70;99.90;;;;;;4985898;28;20212;-47
2022/05/11 01:01:45;;;;;;;66.30;27.45;;;19.90;99.90;;;;;;4986025;28;20280;-47
2022/05/11 01:04:17;;;;;;;81.43;31.02;;;19.80;99.90;;;;;;4986169;28;20243;-47
2022/05/11 01:06:43;;;;;;;79.25;31.40;;;19.90;99.90;;;;;;4987544;28;20222;-47
2022/05/11 01:09:10;;;;;;;69.00;29.10;;;19.90;67.30;;;;;;4985592;28;20220;-47
2022/05/11 01:11:41;;;;;;;77.10;30.55;;;19.80;99.90;;;;;;4985065;28;20200;-47
2022/05/11 01:14:10;;;;;;;70.30;28.17;;;19.90;99.90;;;;;;4987189;28;20336;-47
2022/05/11 01:16:38;;;;;;;66.90;28.77;;;19.90;99.90;;;;;;4999325;28;20217;-47
2022/05/11 01:19:04;;;;;;;63.58;28.23;;;19.60;99.90;;;;;;5005445;28;20908;-47
2022/05/11 01:21:46;;;;;;;77.07;30.40;;;19.80;99.90;;;;;;5005481;28;20208;-47
2022/05/11 01:24:36;;;;;;;49.83;24.20;;;19.70;1.00;;;;;;5007106;28;20795;-47
2022/05/11 01:27:23;;;;;;;71.70;27.77;;;19.40;99.90;;;;;;5005920;28;20346;-47
2022/05/11 01:29:48;;;;;;;77.85;28.80;;;;;;;;;;5005555;28;20312;-46
2022/05/11 01:32:14;;;;;;;83.13;30.85;;;;;;;;;;5007468;28;20274;-47
2022/05/11 01:34:40;;;;;;;35.38;17.23;;;20.00;1.00;;;;;;5005908;28;20232;-47
2022/05/11 01:37:06;;;;;;;83.40;31.20;;;20.00;1.00;;;;;;5006501;28;20270;-47
2022/05/11 01:39:32;;;;;;;90.95;33.15;;;;;;;;;;5007069;28;20228;-47
2022/05/11 01:41:59;;;;;;;76.28;28.38;;;;;;;;;;5002325;28;20225;-46
2022/05/11 01:44:25;;;;;;;76.25;29.35;;;;;;;;;;4989901;28;20480;-46
2022/05/11 01:46:53;;;;;;;46.72;20.45;;;19.70;1.00;;;;;;4990819;28;20563;-47
2022/05/11 01:49:21;;;;;;;79.55;28.58;;;19.50;1.00;;;;;;4990848;28;20321;-47
2022/05/11 01:51:46;;;;;;;88.22;31.88;;;19.20;99.90;;;;;;4989555;28;20496;-47
2022/05/11 01:54:13;;;;;;;42.67;20.10;;;19.10;1.00;;;;;;4989132;28;20217;-47
2022/05/11 01:56:39;;;;;;;79.15;29.52;;;;;;;;;;4990998;28;20189;-47
2022/05/11 01:59:05;;;;;;;82.72;30.58;;;;;;;;;;4990284;28;20543;-47
2022/05/11 02:01:33;;;;;;;54.80;23.27;;;19.00;99.90;;;;;;4989403;28;20713;-47
2022/05/11 02:04:00;;;;;;;112.95;37.47;;;19.20;1.00;;;;;;4989722;28;20225;-47
2022/05/11 02:09:12;;;;;;;75.18;26.73;;;;;;;;;;4988328;28;20434;-47
2022/05/11 02:11:38;;;;;;;93.55;32.80;;;;;;;;;;4988382;28;20566;-47
2022/05/11 02:14:04;;;;;;;84.80;30.52;;;19.00;1.00;;;;;;4988760;28;20269;-47
2022/05/11 02:16:30;;;;;;;70.75;26.05;;;;;;;;;;4988633;28;20240;-47
2022/05/11 02:18:55;;;;;;;76.53;27.67;;;18.80;1.00;;;;;;4990550;28;20221;-46
2022/05/11 02:21:21;;;;;;;93.97;31.40;;;;;;;;;;4989075;28;20220;-47
2022/05/11 02:23:50;;;;;;;69.35;26.08;;;;;;;;;;4988961;28;20280;-47
2022/05/11 02:26:17;;;;;;;75.97;27.83;;;18.50;1.00;;;;;;4990346;28;20189;-47
2022/05/11 02:28:43;;;;;;;74.10;26.80;;;18.50;1.00;;;;;;4988557;28;20232;-47
2022/05/11 02:31:09;;;;;;;83.43;29.27;;;18.70;1.00;;;;;;5007558;28;20342;-47
2022/05/11 02:33:35;;;;;;;66.78;25.38;;;18.40;1.00;;;;;;5008783;28;20212;-47
2022/05/11 02:36:01;;;;;;;64.88;23.48;;;18.30;1.00;;;;;;5009427;28;20624;-47
2022/05/11 02:38:35;;;;;;;78.22;28.38;;;18.30;1.00;;;;;;5009787;28;20224;-47
2022/05/11 02:41:01;;;;;;;71.53;25.70;;;;;;;;;;5009586;28;20197;-47
2022/05/11 02:43:27;;;;;;;65.32;24.02;;;;;;;;;;5009334;28;20221;-47
2022/05/11 02:45:53;;;;;;;62.63;23.95;;;18.20;1.00;;;;;;5008272;28;20212;-47
2022/05/11 02:48:22;;;;;;;79.53;27.58;;;18.00;15.80;;;;;;5007219;28;20216;-47
2022/05/11 02:50:51;;;;;;;84.38;28.88;;;18.00;19.00;;;;;;5006897;28;20264;-47
2022/05/11 02:53:18;;;;;;;42.78;18.67;;;18.00;11.90;;;;;;5008192;28;20381;-47
2022/05/11 02:55:46;;;;;;;59.45;22.52;;;18.20;35.00;;;;;;5007672;28;20219;-47
2022/05/11 02:58:13;;;;;;;72.20;26.55;;;18.40;46.20;;;;;;5008779;28;20225;-47
2022/05/11 03:00:40;;;;;;;77.68;27.80;;;17.80;30.40;;;;;;5007188;28;20312;-47
2022/05/11 03:03:07;;;;;;;54.35;20.65;;;17.80;34.90;;;;;;5008079;28;20584;-47
2022/05/11 03:05:34;;;;;;;53.20;20.63;;;17.80;25.90;;;;;;5007331;28;20185;-47
2022/05/11 03:08:00;;;;;;;79.22;26.45;;;;;;;;;;5007882;28;20280;-47
2022/05/11 03:10:26;;;;;;;78.70;26.92;;;;;;;;;;5006904;28;20640;-47
2022/05/11 03:12:52;;;;;;;87.90;29.85;;;;;;;;;;5005439;28;20213;-47
2022/05/11 03:15:18;;;;;;;84.60;27.90;;;;;;;;;;5008339;28;20476;-47
2022/05/11 03:17:43;;;;;;;51.85;19.98;;;18.00;45.80;;;;;;5007225;28;20201;-47
2022/05/11 03:20:10;;;;;;;60.60;22.50;;;17.70;40.20;;;;;;5008866;28;20177;-47
2022/05/11 03:22:37;;;;;;;63.85;23.58;;;17.70;42.00;;;;;;5009049;28;20225;-47
2022/05/11 03:25:04;;;;;;;98.80;31.83;;;17.80;39.40;;;;;;5005600;28;20216;-47
2022/05/11 03:27:30;;;;;;;80.53;28.92;;;;;;;;;;4987349;28;20585;-47
2022/05/11 03:29:55;;;;;;;60.53;22.88;;;17.50;70.10;;;;;;4988600;28;20217;-47
2022/05/11 03:35:08;;;;;;;83.97;28.17;;;17.70;43.30;;;;;;4986725;28;20197;-47
2022/05/11 03:37:34;;;;;;;79.65;28.20;;;17.80;69.40;;;;;;4986537;28;20217;-47
2022/05/11 03:40:00;;;;;;;77.35;26.65;;;;;;;;;;4988439;28;20227;-47
2022/05/11 03:42:30;;;;;;;44.17;18.77;;;17.90;73.90;;;;;;4987354;28;20288;-47
2022/05/11 03:45:14;;;;;;;69.82;26.08;;;18.10;76.50;;;;;;4987550;28;20304;-47
2022/05/11 03:47:40;;;;;;;91.07;30.60;;;17.60;49.90;;;;;;4986382;28;20256;-47
2022/05/11 03:50:07;;;;;;;77.00;26.92;;;17.70;50.30;;;;;;4987181;28;20602;-47
2022/05/11 03:52:33;;;;;;;84.85;28.70;;;17.90;54.70;;;;;;4984791;28;20232;-47
2022/05/11 03:54:59;;;;;;;83.38;28.80;;;;;;;;;;4987103;28;20217;-47
2022/05/11 03:57:25;;;;;;;61.97;22.65;;;17.80;76.50;;;;;;4987186;28;20221;-47
2022/05/11 03:59:51;;;;;;;68.00;25.42;;;17.80;72.50;;;;;;4988344;28;20221;-47
2022/05/11 04:02:17;;;;;;;66.90;24.15;;;;;;;;;;4987370;28;20594;-47
2022/05/11 04:04:43;;;;;;;87.55;30.85;;;;;;;;;;4986372;28;20320;-47
2022/05/11 04:07:09;;;;;;;79.05;27.85;;;;;;;;;;4986101;28;20213;-47
2022/05/11 04:09:34;;;;;;;59.83;22.45;;;17.60;73.20;;;;;;4986820;28;20217;-47
2022/05/11 04:12:00;;;;;;;59.42;22.40;;;;;;;;;;4986770;28;20347;-47
2022/05/11 04:14:25;;;;;;;60.78;22.85;;;17.90;45.20;;;;;;4988699;28;20201;-47
2022/05/11 04:16:58;;;;;;;98.38;32.35;;;17.70;27.10;;;;;;4986204;28;20229;-47
2022/05/11 04:19:24;;;;;;;73.53;26.63;;;17.40;33.50;;;;;;4985753;28;20221;-47
2022/05/11 04:21:50;;;;;;;75.05;26.45;;;18.20;23.90;;;;;;4986141;28;20232;-47
2022/05/11 04:24:16;;;;;;;74.72;27.05;;;;;;;;;;4986851;28;20296;-47
2022/05/11 04:26:41;;;;;;;72.15;26.02;;;;;;;;;;4986808;28;20288;-46
2022/05/11 04:29:07;;;;;;;91.78;32.35;;;;;;;;;;4986305;28;20348;-47
2022/05/11 04:31:33;;;;;;;90.22;31.75;;;;;;;;;;4985989;28;20336;-47
2022/05/11 04:33:59;;;;;;;88.97;30.77;;;;;;;;;;4986106;28;20213;-47
2022/05/11 04:36:25;;;;;;;96.22;33.20;;;;;;;;;;4985953;28;20225;-47
2022/05/11 04:38:51;;;;;;;84.82;31.60;;;18.20;54.00;;;;;;4985510;28;20229;-47
2022/05/11 04:41:18;;;;;;;109.82;35.65;;;;;;;;;;4986294;28;20177;-47
2022/05/11 04:43:44;;;;;;;88.55;31.65;;;;;;;;;;4985436;28;20530;-46
2022/05/11 04:46:10;;;;;;;86.50;30.02;;;;;;;;;;4986070;28;20300;-47
2022/05/11 04:48:36;;;;;;;86.95;31.13;;;;;;;;;;4986840;28;20295;-47
2022/05/11 04:51:03;;;;;;;100.65;34.33;;;18.00;19.00;;;;;;4994939;28;20275;-46
2022/05/11 04:53:29;;;;;;;81.03;29.98;;;;;;;;;;5005268;28;20236;-47
2022/05/11 04:55:55;;;;;;;87.20;31.35;;;18.00;1.00;;;;;;5007460;28;20252;-47
2022/05/11 04:58:21;;;;;;;75.30;26.95;;;18.10;16.90;;;;;;5004166;28;20213;-47
2022/05/11 05:00:47;;;;;;;75.80;27.70;;;;;;;;;;5005978;28;20271;-47
2022/05/11 05:03:14;;;;;;;73.63;27.40;;;17.80;17.10;;;;;;5005965;28;20612;-47
2022/05/11 05:05:40;;;;;;;134.13;42.13;;;;;;;;;;5005411;28;20223;-47
2022/05/11 05:08:06;;;;;;;84.95;29.70;;;;;;;;;;5005276;28;20209;-47
2022/05/11 05:10:33;;;;;;;78.35;28.33;;;;;;;;;;5006067;28;20263;-46
2022/05/11 05:13:07;;;;;;;98.00;33.53;;;18.20;1.00;;;;;;5005871;28;20604;-47
2022/05/11 05:15:35;;;;;;;82.65;29.48;;;18.10;1.00;;;;;;5010254;28;20213;-46
2022/05/11 05:18:01;;;;;;;125.22;39.97;;;18.10;1.00;;;;;;4991778;28;20570;-48
2022/05/11 05:20:27;;;;;;;71.07;26.73;;;18.30;12.30;;;;;;4990853;28;20212;-48
2022/05/11 05:22:53;;;;;;;85.38;29.98;;;;;;;;;;4990602;28;20221;-48
2022/05/11 05:25:19;;;;;;;79.05;27.58;;;18.70;1.00;;;;;;4988726;28;20542;-48
2022/05/11 05:27:45;;;;;;;143.20;44.60;;;;;;;;;;4987656;28;20244;-47
2022/05/11 05:32:55;;;;;;;90.90;31.60;;;;;;;;;;4988450;28;20284;-47
2022/05/11 05:35:22;;;;;;;96.07;33.15;;;;;;;;;;4989666;28;20547;-47
2022/05/11 05:37:48;;;;;;;84.75;30.08;;;;;;;;;;4988283;28;20217;-48
2022/05/11 05:40:14;;;;;;;90.53;32.80;;;;;;;;;;4989261;28;20686;-47
2022/05/11 05:42:40;;;;;;;108.90;36.67;;;19.00;1.00;;;;;;4988260;28;20280;-48
2022/05/11 05:45:07;;;;;;;66.63;26.00;;;18.30;1.00;;;;;;4991242;28;20655;-48
2022/05/11 05:47:33;;;;;;;109.10;38.78;;;;;;;;;;4988491;28;20197;-48
2022/05/11 05:49:59;;;;;;;83.25;30.73;;;19.50;1.00;;;;;;4989458;28;20499;-48
2022/05/11 05:52:25;;;;;;;85.38;31.42;;;19.10;1.00;;;;;;4988009;28;20228;-48
2022/05/11 05:54:54;;;;;;;90.65;34.42;;;19.20;1.00;;;;;;4989948;28;20225;-48
2022/05/11 05:57:20;;;;;;;83.68;32.38;;;19.60;1.00;;;;;;4988235;28;20217;-48
2022/05/11 05:59:45;;;;;;;96.63;36.85;;;19.50;1.00;;;;;;4987681;28;20177;-48
2022/05/11 06:02:16;;;;;;;63.20;25.70;;;;;;;;;;4990377;28;20180;-48
2022/05/11 06:04:46;;;;;;;89.80;32.40;;;19.90;1.00;;;;;;4989214;28;20240;-48
2022/05/11 06:07:13;;;;;;;67.45;26.67;;;20.70;1.00;;;;;;4990238;28;20245;-48
2022/05/11 06:09:39;;;;;;;93.70;34.92;;;19.30;1.00;;;;;;4988992;28;20216;-48
2022/05/11 06:12:06;;;;;;;56.72;25.60;;;19.40;1.00;;;;;;4987754;28;20694;-48
2022/05/11 06:14:32;;;;;;;71.63;28.73;;;19.60;1.00;;;;;;4990248;28;20670;-48
2022/05/11 06:17:01;;;;;;;77.88;33.63;;;;;;;;;;4989711;28;20213;-48
2022/05/11 06:19:27;;;;;;;63.08;25.48;;;19.40;1.00;;;;;;4990823;28;20221;-48
2022/05/11 06:21:53;;;;;;;74.85;27.02;;;19.60;1.00;;;;;;4991078;28;20221;-50
2022/05/11 06:24:19;;;;;;;67.78;25.75;;;;;;;;;;4990017;28;20221;-49
2022/05/11 06:26:46;;;;;;;85.32;33.20;;;;;;;;;;4988443;28;20297;-49
2022/05/11 06:29:11;;;;;;;83.47;32.47;;;19.70;1.00;;;;;;4990309;28;20170;-49
2022/05/11 06:31:37;;;;;;;88.03;31.80;;;19.60;1.00;;;;;;4990548;28;20323;-48
2022/05/11 06:34:03;;;;;;;86.35;31.23;;;;;;;;;;4989347;28;20213;-49
2022/05/11 06:36:29;;;;;;;90.30;34.08;;;;;;;;;;4988687;28;20734;-48
2022/05/11 06:38:56;;;;;;;104.32;36.38;;;20.00;1.00;;;;;;4986660;28;20241;-49
2022/05/11 06:41:25;;;;;;;87.95;34.20;;;19.80;1.00;;;;;;4987586;28;20177;-49
2022/05/11 06:43:51;;;;;;;101.40;37.22;;;;;;;;;;4985882;28;20225;-50
2022/05/11 06:46:20;;;;;;;59.50;24.60;;;19.80;1.00;;;;;;4989640;28;20734;-47
2022/05/11 06:48:47;;;;;;;78.57;31.25;;;;;;;;;;4990386;28;20216;-47
2022/05/11 06:51:13;;;;;;;53.28;23.83;;;;;;;;;;4990533;28;20209;-47
2022/05/11 06:59:24;;;;;;;90.57;31.23;;;19.90;1.00;;;;;;4986973;28;20264;-49
2022/05/11 07:01:57;;;;;;;57.58;22.92;;;20.20;1.00;;;;;;4986756;28;20332;-50
2022/05/11 07:04:24;;;;;;;63.30;25.88;;;19.70;1.00;;;;;;4990129;28;20597;-49
2022/05/11 07:06:54;;;;;;;52.42;25.15;;;19.80;1.00;;;;;;4989489;28;20275;-50
2022/05/11 07:09:21;;;;;;;75.00;33.72;;;19.90;1.00;;;;;;4988768;28;20220;-49
2022/05/11 07:14:31;;;;;;;62.88;25.52;;;20.30;1.00;;;;;;4989765;28;20200;-49
2022/05/11 07:16:57;;;;;;;69.75;29.13;;;20.30;1.00;;;;;;4988971;28;20229;-50
2022/05/11 07:19:23;;;;;;;67.20;28.15;;;20.10;1.00;;;;;;4989830;28;20589;-50
2022/05/11 07:21:50;;;;;;;56.78;28.00;;;20.40;1.00;;;;;;4990236;28;20225;-50
2022/05/11 07:24:16;;;;;;;69.25;29.85;;;20.70;1.00;;;;;;4989657;28;20321;-49
2022/05/11 07:26:42;;;;;;;40.25;21.75;;;20.40;1.00;;;;;;4990164;28;20583;-50
2022/05/11 07:29:08;;;;;;;79.15;32.90;;;;;;;;;;4989919;28;20189;-49
2022/05/11 07:31:33;;;;;;;80.22;31.65;;;;;;;;;;4988434;28;20221;-49
2022/05/11 07:33:59;;;;;;;56.10;24.80;;;;;;;;;;4988326;28;20297;-50
2022/05/11 07:36:25;;;;;;;35.95;20.75;;;20.80;1.00;;;;;;4988682;28;20268;-50
2022/05/11 07:38:51;;;;;;;70.05;30.50;;;20.80;1.00;;;;;;4989713;28;20317;-50
2022/05/11 07:41:17;;;;;;;81.30;33.10;;;20.40;1.00;;;;;;4989755;28;20176;-49
2022/05/11 07:43:43;;;;;;;51.72;23.77;;;20.60;1.00;;;;;;4988119;28;20662;-50
2022/05/11 07:46:09;;;;;;;50.45;25.13;;;20.90;1.00;;;;;;4989285;28;20223;-50
2022/05/11 07:48:35;;;;;;;45.83;24.20;;;;;;;;;;4990015;28;20585;-48
2022/05/11 07:51:01;;;;;;;88.35;39.30;;;;;;;;;;4988717;28;20229;-47
2022/05/11 07:53:26;;;;;;;109.70;42.75;;;21.10;1.00;;;;;;4989460;28;20249;-47
2022/05/11 07:59:52;;;;;;;65.80;29.85;;;;;;;;;;4988654;28;20284;-48
2022/05/11 08:01:23;;;;;;;62.13;43.15;;;;;;;;;;4988092;28;20228;-47
2022/05/11 08:03:48;;;;;;;39.17;23.40;;;21.50;99.90;;;;;;4988866;28;20221;-50
2022/05/11 08:06:16;;;;;;;63.83;33.10;;;;;;;;;;4989125;28;20308;-50
2022/05/11 08:08:42;;;;;;;60.58;34.88;;;;;;;;;;4986396;28;20185;-49
2022/05/11 08:11:08;;;;;;;70.13;39.00;;;;;;;;;;4989048;28;20189;-49
2022/05/11 08:13:34;;;;;;;58.85;34.28;;;;;;;;;;4985601;28;20209;-50
2022/05/11 08:16:00;;;;;;;76.88;40.67;;;21.60;1.00;;;;;;4988021;28;20679;-50
2022/05/11 08:18:26;;;;;;;32.80;27.33;;;22.00;99.90;;;;;;4987556;28;20252;-50
2022/05/11 08:20:52;;;;;;;65.60;38.67;;;21.90;1.00;;;;;;4989158;28;20237;-50
2022/05/11 08:23:18;;;;;;;73.25;39.13;;;;;;;;;;4989358;28;20193;-49
2022/05/11 08:25:46;;;;;;;40.58;32.38;;;21.90;75.00;;;;;;4988957;28;20881;-50
2022/05/11 08:28:14;;;;;;;59.50;38.30;;;22.30;99.90;;;;;;4987771;28;20221;-50
2022/05/11 08:33:27;;;;;;;67.05;41.30;;;22.20;1.00;;;;;;4989485;28;20271;-49
2022/05/11 08:36:13;;;;;;;56.03;37.88;;;22.60;1.00;;;;;;4988801;28;20220;-49
2022/05/11 08:38:42;;;;;;;85.78;45.15;;;22.60;93.00;;;;;;4985153;28;20185;-49
2022/05/11 08:41:29;;;;;;;95.38;49.97;;;22.60;91.30;;;;;;4986809;28;20185;-51
2022/05/11 08:44:00;;;;;;;101.45;53.88;;;22.70;1.00;;;;;;4981617;28;20225;-51
2022/05/11 08:46:55;;;;;;;211.15;94.90;;;22.50;1.00;;;;;;4973015;28;20263;-50
2022/05/11 08:49:22;;;;;;;88.82;48.97;;;;;;;;;;4978611;28;20296;-51
2022/05/11 08:51:55;;;;;;;180.98;74.45;;;22.60;99.90;;;;;;4977952;28;20221;-50
2022/05/11 08:54:20;;;;;;;128.80;64.40;;;;;;;;;;4970755;28;20292;-50
2022/05/11 08:56:48;;;;;;;116.93;60.15;;;22.60;99.90;;;;;;4971709;28;20296;-50
2022/05/11 08:59:23;;;;;;;372.65;130.23;;;24.30;1.00;;;;;;4961790;28;20181;-50
2022/05/11 09:01:54;;;;;;;125.30;64.18;;;22.50;99.90;;;;;;4972089;28;20703;-51
2022/05/11 09:04:25;;;;;;;93.75;48.55;;;20.20;99.90;;;;;;4970168;28;20221;-51
2022/05/11 09:06:51;;;;;;;238.88;82.53;;;22.80;1.00;;;;;;4959783;28;20233;-51
2022/05/11 09:09:17;;;;;;;101.50;59.33;;;22.60;1.00;;;;;;4969792;28;20230;-50
2022/05/11 09:11:47;;;;;;;143.27;68.50;;;22.70;1.00;;;;;;4966638;28;20196;-50
2022/05/11 09:14:17;;;;;;;250.60;96.68;;;22.70;1.00;;;;;;4957256;28;20189;-50
2022/05/11 09:16:46;;;;;;;151.95;69.78;;;23.10;99.90;;;;;;4961238;28;20232;-50
2022/05/11 09:19:12;;;;;;;263.77;94.85;;;;;;;;;;4960260;28;20765;-50
2022/05/11 09:21:39;;;;;;;152.13;70.22;;;23.00;99.90;;;;;;4956188;28;20217;-50
2022/05/11 09:24:28;;;;;;;166.05;78.88;;;23.10;99.90;;;;;;4967005;28;20236;-51
2022/05/11 09:27:20;;;;;;;144.80;67.97;;;23.20;1.00;;;;;;4971656;28;20265;-50
2022/05/11 09:29:46;;;;;;;283.60;102.35;;;;;;;;;;4965816;28;20212;-50
2022/05/11 09:32:32;;;;;;;154.52;80.00;;;23.60;99.90;;;;;;4969181;28;20622;-50
2022/05/11 09:35:17;;;;;;;117.28;66.05;;;23.40;1.00;;;;;;4977690;28;20272;-50
2022/05/11 09:37:44;;;;;;;99.22;64.03;;;23.60;99.90;;;;;;4981126;28;20217;-50
2022/05/11 09:40:20;;;;;;;129.02;78.05;;;23.70;99.90;;;;;;4982732;28;20300;-50
2022/05/11 09:42:56;;;;;;;91.35;66.00;;;23.80;99.90;;;;;;4979136;28;20228;-50
2022/05/11 09:45:51;;;;;;;181.68;97.32;;;24.00;1.00;;;;;;4983699;28;20288;-50
2022/05/11 09:48:22;;;;;;;117.68;77.60;;;24.10;1.00;;;;;;4971926;28;20284;-50
2022/05/11 09:51:16;;;;;;;85.50;70.00;;;24.10;99.90;;;;;;4962888;28;20697;-50
2022/05/11 09:53:53;;;;;;;105.15;76.32;;;24.40;1.00;;;;;;4975885;28;20424;-50
2022/05/11 09:56:31;;;;;;;95.20;75.22;;;24.50;43.40;;;;;;4981359;28;20611;-50
2022/05/11 09:58:57;;;;;;;148.80;92.63;;;;;;;;;;4979184;28;20228;-50
2022/05/11 10:01:26;;;;;;;121.22;87.20;;;24.50;1.00;;;;;;4981690;28;20604;-50
2022/05/11 10:03:57;;;;;;;130.80;91.38;;;24.60;1.00;;;;;;4978319;28;20233;-51
2022/05/11 10:06:24;;;;;;;86.50;74.00;;;24.70;1.00;;;;;;4983545;28;20349;-51
2022/05/11 10:08:52;;;;;;;93.50;83.50;;;24.80;1.00;;;;;;4984257;28;20260;-51
2022/05/11 10:11:33;;;;;;;97.25;87.50;;;25.00;99.90;;;;;;4981988;28;20253;-50
2022/05/11 10:22:59;;;;;;;128.35;111.53;;;25.90;99.90;;;;;;4968011;28;20283;-50
2022/05/11 10:25:30;;;;;;;208.65;128.98;;;27.70;99.90;;;;;;4963200;28;20222;-48
2022/05/11 10:28:06;;;;;;;228.50;157.55;;;26.00;99.90;;;;;;4969459;28;20221;-48
2022/05/11 10:30:56;;;;;;;137.68;111.88;;;25.80;99.90;;;;;;4959319;28;20217;-48
2022/05/11 10:33:53;;;;;;;269.13;155.80;;;25.80;99.90;;;;;;4963808;28;20288;-48
2022/05/11 10:36:55;;;;;;;153.57;119.30;;;25.70;99.90;;;;;;4960621;28;20283;-48
2022/05/11 10:39:54;;;;;;;231.38;137.95;;;25.90;99.90;;;;;;4959569;28;20586;-48
2022/05/11 10:42:34;;;;;;;208.02;130.13;;;26.00;99.90;;;;;;4961716;28;21020;-48
2022/05/11 10:45:41;;;;;;;234.23;154.02;;;26.10;99.90;;;;;;4959700;28;20348;-49
2022/05/11 10:48:35;;;;;;;158.85;128.85;;;26.00;99.90;;;;;;4964421;28;20224;-49
2022/05/11 10:51:12;;;;;;;216.00;150.45;;;25.80;83.50;;;;;;4967115;28;20263;-48
2022/05/11 10:53:48;;;;;;;135.48;118.95;;;25.80;84.90;;;;;;4965613;28;20198;-49
2022/05/11 10:56:26;;;;;;;151.88;123.75;;;25.80;1.00;;;;;;4963509;28;20341;-48
2022/05/11 10:59:23;;;;;;;211.55;149.90;;;26.70;1.00;;;;;;4965232;28;20710;-48
2022/05/11 11:02:18;;;;;;;239.75;167.95;;;26.30;1.00;;;;;;4962909;28;20654;-48
2022/05/11 11:05:20;;;;;;;202.82;141.48;;;26.50;99.90;;;;;;4953987;28;20586;-48
2022/05/11 11:08:17;;;;;;;195.20;147.50;;;26.40;67.20;;;;;;4962498;28;20209;-48
2022/05/11 11:10:57;;;;;;;188.23;161.15;;;26.50;1.00;;;;;;4966450;28;20222;-48
2022/05/11 11:13:52;;;;;;;229.93;176.40;;;26.70;99.90;;;;;;4958202;28;20221;-48
2022/05/11 11:16:18;;;;;;;196.98;156.20;;;;;;;;;;4959729;28;20760;-48
2022/05/11 11:18:48;;;;;;;139.25;125.07;;;26.50;1.00;;;;;;4966059;28;20214;-49
2022/05/11 11:21:14;;;;;;;224.98;161.68;;;;;;;;;;4971005;28;20277;-49
2022/05/11 11:23:42;;;;;;;211.85;167.48;;;27.00;1.00;;;;;;4962958;28;20256;-49
2022/05/11 11:26:11;;;;;;;221.88;175.50;;;26.80;1.00;;;;;;4958900;28;20260;-49
2022/05/11 11:28:39;;;;;;;165.20;149.07;;;27.50;1.00;;;;;;4973591;28;20214;-48
2022/05/11 11:31:05;;;;;;;468.48;238.52;;;;;;;;;;4954086;28;20801;-48
2022/05/11 11:33:33;;;;;;;190.80;147.15;;;26.80;99.90;;;;;;4958027;28;20210;-49
2022/05/11 11:36:26;;;;;;;233.73;169.02;;;26.90;1.00;;;;;;4968197;28;20615;-48
2022/05/11 11:38:53;;;;;;;159.77;145.43;;;27.10;1.00;;;;;;4962077;28;20269;-48
2022/05/11 11:41:19;;;;;;;195.57;174.32;;;;;;;;;;4961180;28;20362;-49
2022/05/11 11:43:51;;;;;;;183.95;163.90;;;27.20;1.00;;;;;;4956451;28;20221;-48
2022/05/11 11:46:30;;;;;;;193.52;170.80;;;27.10;1.00;;;;;;4952757;28;20321;-50
2022/05/11 11:49:07;;;;;;;225.88;189.20;;;27.50;76.70;;;;;;4968184;28;20225;-50
2022/05/11 11:51:50;;;;;;;173.88;156.10;;;27.30;1.00;;;;;;4969345;28;20609;-51
2022/05/11 11:54:28;;;;;;;190.52;171.02;;;27.70;1.00;;;;;;4975026;28;20757;-51
2022/05/11 11:56:55;;;;;;;218.82;182.27;;;27.70;1.00;;;;;;4961603;28;20332;-50
2022/05/11 11:59:24;;;;;;;211.10;172.10;;;27.70;1.00;;;;;;4977018;28;20189;-51
2022/05/11 12:01:53;;;;;;;178.15;160.00;;;27.50;1.00;;;;;;4981623;28;20218;-50
2022/05/11 12:04:40;;;;;;;182.23;165.27;;;27.80;1.00;;;;;;4980441;28;20225;-51
2022/05/11 12:15:34;;;;;;;210.73;189.23;;;28.30;99.90;;;;;;4979292;28;20634;-51
2022/05/11 12:18:20;;;;;;;189.82;172.43;;;28.60;90.60;;;;;;4982650;28;20509;-51
2022/05/11 12:20:45;;;;;;;194.38;177.00;;;28.80;1.00;;;;;;4980586;28;20201;-51
2022/05/11 12:23:18;;;;;;;194.52;177.93;;;28.80;99.90;;;;;;4984528;28;20408;-51
2022/05/11 12:25:55;;;;;;;205.38;187.20;;;28.70;57.90;;;;;;4979429;28;20228;-51
2022/05/11 12:28:29;;;;;;;206.70;189.80;;;30.10;1.00;;;;;;4980636;28;20555;-51
2022/05/11 12:30:55;;;;;;;213.82;195.05;;;29.20;1.00;;;;;;4982332;28;20584;-51
2022/05/11 12:33:21;;;;;;;232.77;211.55;;;;;;;;;;4982716;28;20484;-51
2022/05/11 12:35:49;;;;;;;233.82;212.07;;;;;;;;;;4980079;28;20244;-51
2022/05/11 12:38:32;;;;;;;216.45;196.90;;;29.40;1.00;;;;;;4983359;28;20275;-51
2022/05/11 12:41:00;;;;;;;212.68;194.55;;;29.40;1.00;;;;;;4984522;28;20209;-51
2022/05/11 12:43:38;;;;;;;221.13;199.90;;;29.10;1.00;;;;;;4983538;28;20511;-50
2022/05/11 12:46:10;;;;;;;208.85;192.00;;;29.10;1.00;;;;;;4979241;28;20258;-51
2022/05/11 12:48:56;;;;;;;213.13;193.57;;;29.10;1.00;;;;;;4977451;28;20300;-51
2022/05/11 12:51:31;;;;;;;218.85;196.75;;;29.10;1.00;;;;;;4982503;28;20236;-51
2022/05/11 12:54:00;;;;;;;214.18;194.07;;;28.70;1.00;;;;;;4982884;28;20225;-51
2022/05/11 12:56:32;;;;;;;169.98;158.30;;;28.60;1.00;;;;;;4983667;28;20422;-51
2022/05/11 12:59:04;;;;;;;192.75;177.02;;;28.70;1.00;;;;;;4981914;28;20216;-51
2022/05/11 13:01:32;;;;;;;193.02;176.27;;;28.70;1.00;;;;;;4980958;28;20209;-51
2022/05/11 13:04:01;;;;;;;213.10;192.40;;;28.60;1.00;;;;;;4978092;28;20312;-51
2022/05/11 13:06:35;;;;;;;238.88;216.73;;;29.00;1.00;;;;;;4979949;28;20340;-51
2022/05/11 13:09:23;;;;;;;241.70;217.70;;;29.20;1.00;;;;;;4976329;28;20680;-51
2022/05/11 13:11:50;;;;;;;247.38;222.93;;;29.60;1.00;;;;;;4981858;28;20268;-51
2022/05/11 13:14:18;;;;;;;206.80;189.80;;;29.50;1.00;;;;;;4981126;28;20313;-51
2022/05/11 13:16:53;;;;;;;225.00;203.27;;;29.30;1.00;;;;;;4977394;28;20226;-51
2022/05/11 13:19:37;;;;;;;236.93;214.57;;;29.10;1.00;;;;;;4982179;28;20197;-51
2022/05/11 13:22:10;;;;;;;269.58;242.13;;;29.10;1.00;;;;;;4984326;28;20217;-51
2022/05/11 13:24:48;;;;;;;251.02;227.73;;;29.80;1.00;;;;;;4987354;28;20375;-51
2022/05/11 13:27:26;;;;;;;255.00;231.00;;;29.90;1.00;;;;;;4982781;28;20330;-51
2022/05/11 13:30:11;;;;;;;253.50;229.10;;;29.90;1.00;;;;;;4979813;28;20216;-51
2022/05/11 13:32:52;;;;;;;236.23;215.32;;;30.00;1.00;;;;;;4980367;28;20220;-51
2022/05/11 13:35:18;;;;;;;246.25;222.88;;;;;;;;;;4985912;28;20178;-51
2022/05/11 13:37:58;;;;;;;227.85;208.13;;;30.10;1.00;;;;;;4983527;28;20710;-51
2022/05/11 13:40:48;;;;;;;243.52;218.88;;;29.90;1.00;;;;;;4983053;28;20267;-51
2022/05/11 13:43:21;;;;;;;235.07;211.13;;;30.30;1.00;;;;;;4953633;28;20236;-51
2022/05/11 13:46:00;;;;;;;253.27;227.98;;;30.40;1.00;;;;;;4951489;28;20573;-51
2022/05/11 13:48:28;;;;;;;260.58;234.80;;;30.30;99.90;;;;;;4969751;28;20213;-51
2022/05/11 13:51:15;;;;;;;349.65;261.77;;;30.20;1.00;;;;;;4957792;28;20221;-51
2022/05/11 13:53:41;;;;;;;260.90;233.20;;;30.20;1.00;;;;;;4967869;28;20189;-48